sensor_id;sensor_type;location;lat;lon;timestamp;temperature;humidity
18240;DHT22;9244;50.828;4.718;2023-08-30T00:00:09;12.50;99.90
18240;DHT22;9244;50.828;4.718;2023-08-30T00:02:35;12.50;99.90
18240;DHT22;9244;50.828;4.718;2023-08-30T00:05:03;12.60;99.90
18240;DHT22;9244;50.828;4.718;2023-08-30T00:07:29;12.60;99.90
18240;DHT22;9244;50.828;4.718;2023-08-30T00:09:56;12.60;99.90
18240;DHT22;9244;50.828;4.718;2023-08-30T00:12:21;12.60;99.90
18240;DHT22;9244;50.828;4.718;2023-08-30T00:14:47;12.50;99.90
18240;DHT22;9244;50.828;4.718;2023-08-30T00:17:13;12.50;99.90
18240;DHT22;9244;50.828;4.718;2023-08-30T00:19:39;12.50;99.90
18240;DHT22;9244;50.828;4.718;2023-08-30T00:22:04;12.50;99.90
18240;DHT22;9244;50.828;4.718;2023-08-30T00:24:33;12.50;99.90
18240;DHT22;9244;50.828;4.718;2023-08-30T00:26:59;12.50;99.90
18240;DHT22;9244;50.828;4.718;2023-08-30T00:29:24;12.60;99.90
18240;DHT22;9244;50.828;4.718;2023-08-30T00:31:50;12.60;99.90
18240;DHT22;9244;50.828;4.718;2023-08-30T00:34:15;12.60;99.90
18240;DHT22;9244;50.828;4.718;2023-08-30T00:36:41;12.60;99.90
18240;DHT22;9244;50.828;4.718;2023-08-30T00:39:07;12.70;99.90
18240;DHT22;9244;50.828;4.718;2023-08-30T00:41:34;12.80;99.90
18240;DHT22;9244;50.828;4.718;2023-08-30T00:44:00;12.70;99.90
18240;DHT22;9244;50.828;4.718;2023-08-30T00:46:25;12.70;99.90
18240;DHT22;9244;50.828;4.718;2023-08-30T00:48:51;12.70;99.90
18240;DHT22;9244;50.828;4.718;2023-08-30T00:51:17;12.60;99.90
18240;DHT22;9244;50.828;4.718;2023-08-30T00:53:44;12.60;99.90
18240;DHT22;9244;50.828;4.718;2023-08-30T00:56:10;12.60;99.90
18240;DHT22;9244;50.828;4.718;2023-08-30T00:58:36;12.70;99.90
18240;DHT22;9244;50.828;4.718;2023-08-30T01:01:03;12.70;99.90
18240;DHT22;9244;50.828;4.718;2023-08-30T01:03:29;12.70;99.90
18240;DHT22;9244;50.828;4.718;2023-08-30T01:05:55;12.70;99.90
18240;DHT22;9244;50.828;4.718;2023-08-30T01:08:21;12.70;99.90
18240;DHT22;9244;50.828;4.718;2023-08-30T01:13:25;12.70;99.90
18240;DHT22;9244;50.828;4.718;2023-08-30T01:15:54;12.70;99.90
18240;DHT22;9244;50.828;4.718;2023-08-30T01:18:22;12.70;99.90
18240;DHT22;9244;50.828;4.718;2023-08-30T01:20:50;12.70;99.90
18240;DHT22;9244;50.828;4.718;2023-08-30T01:23:34;12.70;99.90
18240;DHT22;9244;50.828;4.718;2023-08-30T01:26:09;12.60;99.90
18240;DHT22;9244;50.828;4.718;2023-08-30T01:28:37;12.70;99.90
18240;DHT22;9244;50.828;4.718;2023-08-30T01:31:04;12.70;99.90
18240;DHT22;9244;50.828;4.718;2023-08-30T01:33:31;12.70;99.90
18240;DHT22;9244;50.828;4.718;2023-08-30T01:35:59;12.70;99.90
18240;DHT22;9244;50.828;4.718;2023-08-30T01:38:29;12.70;99.90
18240;DHT22;9244;50.828;4.718;2023-08-30T01:40:58;12.70;99.90
18240;DHT22;9244;50.828;4.718;2023-08-30T01:43:26;12.70;99.90
18240;DHT22;9244;50.828;4.718;2023-08-30T01:45:52;12.70;99.90
18240;DHT22;9244;50.828;4.718;2023-08-30T01:48:19;12.70;99.90
18240;DHT22;9244;50.828;4.718;2023-08-30T01:50:45;12.60;99.90
18240;DHT22;9244;50.828;4.718;2023-08-30T01:53:12;12.70;99.90
18240;DHT22;9244;50.828;4.718;2023-08-30T01:55:38;12.60;99.90
18240;DHT22;9244;50.828;4.718;2023-08-30T01:58:05;12.70;99.90
18240;DHT22;9244;50.828;4.718;2023-08-30T02:00:32;12.70;99.90
18240;DHT22;9244;50.828;4.718;2023-08-30T02:02:57;12.70;99.90
18240;DHT22;9244;50.828;4.718;2023-08-30T02:05:23;12.70;99.90
18240;DHT22;9244;50.828;4.718;2023-08-30T02:08:01;12.70;99.90
18240;DHT22;9244;50.828;4.718;2023-08-30T02:10:32;12.70;99.90
18240;DHT22;9244;50.828;4.718;2023-08-30T02:12:59;12.70;99.90
18240;DHT22;9244;50.828;4.718;2023-08-30T02:15:27;12.70;99.90
18240;DHT22;9244;50.828;4.718;2023-08-30T02:17:53;12.70;99.90
18240;DHT22;9244;50.828;4.718;2023-08-30T02:20:19;12.60;99.90
18240;DHT22;9244;50.828;4.718;2023-08-30T02:22:45;12.70;99.90
18240;DHT22;9244;50.828;4.718;2023-08-30T02:25:10;12.70;99.90
18240;DHT22;9244;50.828;4.718;2023-08-30T02:27:36;12.70;99.90
18240;DHT22;9244;50.828;4.718;2023-08-30T02:30:02;12.70;99.90
18240;DHT22;9244;50.828;4.718;2023-08-30T02:32:28;12.80;99.90
18240;DHT22;9244;50.828;4.718;2023-08-30T02:34:55;12.80;99.90
18240;DHT22;9244;50.828;4.718;2023-08-30T02:37:21;12.80;99.90
18240;DHT22;9244;50.828;4.718;2023-08-30T02:39:47;12.80;99.90
18240;DHT22;9244;50.828;4.718;2023-08-30T02:42:13;12.80;99.90
18240;DHT22;9244;50.828;4.718;2023-08-30T02:44:38;12.80;99.90
18240;DHT22;9244;50.828;4.718;2023-08-30T02:47:04;12.90;99.90
18240;DHT22;9244;50.828;4.718;2023-08-30T02:49:30;12.90;99.90
18240;DHT22;9244;50.828;4.718;2023-08-30T02:51:55;12.90;99.90
18240;DHT22;9244;50.828;4.718;2023-08-30T02:54:21;12.90;99.90
18240;DHT22;9244;50.828;4.718;2023-08-30T02:56:48;12.90;99.90
18240;DHT22;9244;50.828;4.718;2023-08-30T02:59:14;12.90;99.90
18240;DHT22;9244;50.828;4.718;2023-08-30T03:01:40;13.00;99.90
18240;DHT22;9244;50.828;4.718;2023-08-30T03:04:06;13.00;99.90
18240;DHT22;9244;50.828;4.718;2023-08-30T03:06:35;13.00;99.90
18240;DHT22;9244;50.828;4.718;2023-08-30T03:09:02;13.00;99.90
18240;DHT22;9244;50.828;4.718;2023-08-30T03:11:31;13.00;99.90
18240;DHT22;9244;50.828;4.718;2023-08-30T03:13:57;13.00;99.90
18240;DHT22;9244;50.828;4.718;2023-08-30T03:16:23;13.00;99.90
18240;DHT22;9244;50.828;4.718;2023-08-30T03:18:50;13.00;99.90
18240;DHT22;9244;50.828;4.718;2023-08-30T03:21:16;13.00;99.90
18240;DHT22;9244;50.828;4.718;2023-08-30T03:23:42;13.00;99.90
18240;DHT22;9244;50.828;4.718;2023-08-30T03:28:34;13.00;99.90
18240;DHT22;9244;50.828;4.718;2023-08-30T03:31:00;13.00;99.90
18240;DHT22;9244;50.828;4.718;2023-08-30T03:33:25;13.00;99.90
18240;DHT22;9244;50.828;4.718;2023-08-30T03:35:51;13.00;99.90
18240;DHT22;9244;50.828;4.718;2023-08-30T03:38:16;13.00;99.90
18240;DHT22;9244;50.828;4.718;2023-08-30T03:40:42;13.00;99.90
18240;DHT22;9244;50.828;4.718;2023-08-30T03:43:08;13.10;99.90
18240;DHT22;9244;50.828;4.718;2023-08-30T03:45:36;13.10;99.90
18240;DHT22;9244;50.828;4.718;2023-08-30T03:48:03;13.00;99.90
18240;DHT22;9244;50.828;4.718;2023-08-30T03:50:29;13.00;99.90
18240;DHT22;9244;50.828;4.718;2023-08-30T03:52:55;13.10;99.90
18240;DHT22;9244;50.828;4.718;2023-08-30T03:55:20;13.10;99.90
18240;DHT22;9244;50.828;4.718;2023-08-30T03:57:48;13.10;99.90
18240;DHT22;9244;50.828;4.718;2023-08-30T04:00:13;13.10;99.90
18240;DHT22;9244;50.828;4.718;2023-08-30T04:02:39;13.10;99.90
18240;DHT22;9244;50.828;4.718;2023-08-30T04:05:05;13.20;99.90
18240;DHT22;9244;50.828;4.718;2023-08-30T04:07:35;13.10;99.90
18240;DHT22;9244;50.828;4.718;2023-08-30T04:10:01;13.20;99.90
18240;DHT22;9244;50.828;4.718;2023-08-30T04:12:31;13.10;99.90
18240;DHT22;9244;50.828;4.718;2023-08-30T04:14:57;13.10;99.90
18240;DHT22;9244;50.828;4.718;2023-08-30T04:17:22;13.10;99.90
18240;DHT22;9244;50.828;4.718;2023-08-30T04:19:51;13.10;99.90
18240;DHT22;9244;50.828;4.718;2023-08-30T04:22:17;13.10;99.90
18240;DHT22;9244;50.828;4.718;2023-08-30T04:24:43;13.10;99.90
18240;DHT22;9244;50.828;4.718;2023-08-30T04:27:09;13.10;99.90
18240;DHT22;9244;50.828;4.718;2023-08-30T04:29:34;13.10;99.90
18240;DHT22;9244;50.828;4.718;2023-08-30T04:32:00;13.10;99.90
18240;DHT22;9244;50.828;4.718;2023-08-30T04:34:26;13.10;99.90
18240;DHT22;9244;50.828;4.718;2023-08-30T04:36:52;13.10;99.90
18240;DHT22;9244;50.828;4.718;2023-08-30T04:39:17;13.00;99.90
18240;DHT22;9244;50.828;4.718;2023-08-30T04:41:43;13.00;99.90
18240;DHT22;9244;50.828;4.718;2023-08-30T04:44:09;13.10;99.90
18240;DHT22;9244;50.828;4.718;2023-08-30T04:46:34;13.00;99.90
18240;DHT22;9244;50.828;4.718;2023-08-30T04:49:00;13.10;99.90
18240;DHT22;9244;50.828;4.718;2023-08-30T04:51:26;13.10;99.90
18240;DHT22;9244;50.828;4.718;2023-08-30T04:53:52;13.10;99.90
18240;DHT22;9244;50.828;4.718;2023-08-30T04:56:17;13.10;99.90
18240;DHT22;9244;50.828;4.718;2023-08-30T04:58:44;13.10;99.90
18240;DHT22;9244;50.828;4.718;2023-08-30T05:01:09;13.10;99.90
18240;DHT22;9244;50.828;4.718;2023-08-30T05:03:36;13.20;99.90
18240;DHT22;9244;50.828;4.718;2023-08-30T05:06:02;13.20;99.90
18240;DHT22;9244;50.828;4.718;2023-08-30T05:08:28;13.20;99.90
18240;DHT22;9244;50.828;4.718;2023-08-30T05:10:54;13.20;99.90
18240;DHT22;9244;50.828;4.718;2023-08-30T05:13:20;13.20;99.90
18240;DHT22;9244;50.828;4.718;2023-08-30T05:15:45;13.20;99.90
18240;DHT22;9244;50.828;4.718;2023-08-30T05:18:11;13.20;99.90
18240;DHT22;9244;50.828;4.718;2023-08-30T05:20:37;13.20;99.90
18240;DHT22;9244;50.828;4.718;2023-08-30T05:23:02;13.30;99.90
18240;DHT22;9244;50.828;4.718;2023-08-30T05:25:28;13.40;99.90
18240;DHT22;9244;50.828;4.718;2023-08-30T05:27:54;13.40;99.90
18240;DHT22;9244;50.828;4.718;2023-08-30T05:30:19;13.40;99.90
18240;DHT22;9244;50.828;4.718;2023-08-30T05:32:45;13.40;99.90
18240;DHT22;9244;50.828;4.718;2023-08-30T05:35:11;13.40;99.90
18240;DHT22;9244;50.828;4.718;2023-08-30T05:37:36;13.40;99.90
18240;DHT22;9244;50.828;4.718;2023-08-30T05:40:02;13.40;99.90
18240;DHT22;9244;50.828;4.718;2023-08-30T05:42:29;13.40;99.90
18240;DHT22;9244;50.828;4.718;2023-08-30T05:44:54;13.40;99.90
18240;DHT22;9244;50.828;4.718;2023-08-30T05:47:20;13.50;99.90
18240;DHT22;9244;50.828;4.718;2023-08-30T05:49:46;13.50;99.90
18240;DHT22;9244;50.828;4.718;2023-08-30T05:52:12;13.50;99.90
18240;DHT22;9244;50.828;4.718;2023-08-30T05:54:37;13.50;99.90
18240;DHT22;9244;50.828;4.718;2023-08-30T05:57:03;13.50;99.90
18240;DHT22;9244;50.828;4.718;2023-08-30T05:59:29;13.50;99.90
18240;DHT22;9244;50.828;4.718;2023-08-30T06:01:55;13.50;99.90
18240;DHT22;9244;50.828;4.718;2023-08-30T06:04:20;13.40;99.90
18240;DHT22;9244;50.828;4.718;2023-08-30T06:06:46;13.30;99.90
18240;DHT22;9244;50.828;4.718;2023-08-30T06:09:12;13.30;99.90
18240;DHT22;9244;50.828;4.718;2023-08-30T06:11:40;13.30;99.90
18240;DHT22;9244;50.828;4.718;2023-08-30T06:14:05;13.30;99.90
18240;DHT22;9244;50.828;4.718;2023-08-30T06:16:31;13.30;99.90
18240;DHT22;9244;50.828;4.718;2023-08-30T06:18:57;13.30;99.90
18240;DHT22;9244;50.828;4.718;2023-08-30T06:21:25;13.30;99.90
18240;DHT22;9244;50.828;4.718;2023-08-30T06:23:50;13.40;99.90
18240;DHT22;9244;50.828;4.718;2023-08-30T06:26:16;13.30;99.90
18240;DHT22;9244;50.828;4.718;2023-08-30T06:28:41;13.30;99.90
18240;DHT22;9244;50.828;4.718;2023-08-30T06:31:08;13.30;99.90
18240;DHT22;9244;50.828;4.718;2023-08-30T06:33:34;13.30;99.90
18240;DHT22;9244;50.828;4.718;2023-08-30T06:35:59;13.40;99.90
18240;DHT22;9244;50.828;4.718;2023-08-30T06:38:25;13.50;99.90
18240;DHT22;9244;50.828;4.718;2023-08-30T06:40:51;13.50;99.90
18240;DHT22;9244;50.828;4.718;2023-08-30T06:43:16;13.60;99.90
18240;DHT22;9244;50.828;4.718;2023-08-30T06:45:43;13.60;99.90
18240;DHT22;9244;50.828;4.718;2023-08-30T06:48:09;13.70;99.90
18240;DHT22;9244;50.828;4.718;2023-08-30T06:50:35;13.80;99.90
18240;DHT22;9244;50.828;4.718;2023-08-30T06:53:04;13.80;99.90
18240;DHT22;9244;50.828;4.718;2023-08-30T06:55:30;13.80;99.90
18240;DHT22;9244;50.828;4.718;2023-08-30T06:57:57;13.80;99.90
18240;DHT22;9244;50.828;4.718;2023-08-30T07:00:22;13.80;99.90
18240;DHT22;9244;50.828;4.718;2023-08-30T07:02:48;13.90;99.90
18240;DHT22;9244;50.828;4.718;2023-08-30T07:05:14;13.90;99.90
18240;DHT22;9244;50.828;4.718;2023-08-30T07:07:40;13.90;99.90
18240;DHT22;9244;50.828;4.718;2023-08-30T07:10:06;13.80;99.90
18240;DHT22;9244;50.828;4.718;2023-08-30T07:12:32;13.80;99.90
18240;DHT22;9244;50.828;4.718;2023-08-30T07:14:57;13.60;99.90
18240;DHT22;9244;50.828;4.718;2023-08-30T07:17:23;13.30;99.90
18240;DHT22;9244;50.828;4.718;2023-08-30T07:19:49;13.20;99.90
18240;DHT22;9244;50.828;4.718;2023-08-30T07:22:15;13.10;99.90
18240;DHT22;9244;50.828;4.718;2023-08-30T07:24:44;13.10;99.90
18240;DHT22;9244;50.828;4.718;2023-08-30T07:27:10;13.10;99.90
18240;DHT22;9244;50.828;4.718;2023-08-30T07:29:38;13.10;99.90
18240;DHT22;9244;50.828;4.718;2023-08-30T07:32:05;13.20;99.90
18240;DHT22;9244;50.828;4.718;2023-08-30T07:34:31;13.10;99.90
18240;DHT22;9244;50.828;4.718;2023-08-30T07:36:56;13.10;99.90
18240;DHT22;9244;50.828;4.718;2023-08-30T07:39:22;13.20;99.90
18240;DHT22;9244;50.828;4.718;2023-08-30T07:41:48;13.20;99.90
18240;DHT22;9244;50.828;4.718;2023-08-30T07:44:13;13.20;99.90
18240;DHT22;9244;50.828;4.718;2023-08-30T07:46:39;13.20;99.90
18240;DHT22;9244;50.828;4.718;2023-08-30T07:49:05;13.20;99.90
18240;DHT22;9244;50.828;4.718;2023-08-30T07:51:31;13.20;99.90
18240;DHT22;9244;50.828;4.718;2023-08-30T07:53:56;13.20;99.90
18240;DHT22;9244;50.828;4.718;2023-08-30T07:56:22;13.20;99.90
18240;DHT22;9244;50.828;4.718;2023-08-30T07:58:48;13.20;99.90
18240;DHT22;9244;50.828;4.718;2023-08-30T08:01:13;13.20;99.90
18240;DHT22;9244;50.828;4.718;2023-08-30T08:03:39;13.20;99.90
18240;DHT22;9244;50.828;4.718;2023-08-30T08:06:06;13.30;99.90
18240;DHT22;9244;50.828;4.718;2023-08-30T08:08:32;13.30;99.90
18240;DHT22;9244;50.828;4.718;2023-08-30T08:10:59;13.30;99.90
18240;DHT22;9244;50.828;4.718;2023-08-30T08:13:25;13.30;99.90
18240;DHT22;9244;50.828;4.718;2023-08-30T08:15:51;13.30;99.90
18240;DHT22;9244;50.828;4.718;2023-08-30T08:18:16;13.30;99.90
18240;DHT22;9244;50.828;4.718;2023-08-30T08:20:42;13.40;99.90
18240;DHT22;9244;50.828;4.718;2023-08-30T08:23:08;13.40;99.90
18240;DHT22;9244;50.828;4.718;2023-08-30T08:25:34;13.40;99.90
18240;DHT22;9244;50.828;4.718;2023-08-30T08:28:00;13.30;99.90
18240;DHT22;9244;50.828;4.718;2023-08-30T08:30:25;13.40;99.90
18240;DHT22;9244;50.828;4.718;2023-08-30T08:32:51;13.50;99.90
18240;DHT22;9244;50.828;4.718;2023-08-30T08:35:16;13.50;99.90
18240;DHT22;9244;50.828;4.718;2023-08-30T08:37:42;13.40;99.90
18240;DHT22;9244;50.828;4.718;2023-08-30T08:40:08;13.50;99.90
18240;DHT22;9244;50.828;4.718;2023-08-30T08:42:35;13.50;99.90
18240;DHT22;9244;50.828;4.718;2023-08-30T08:45:03;13.50;99.90
18240;DHT22;9244;50.828;4.718;2023-08-30T08:47:30;13.50;99.90
18240;DHT22;9244;50.828;4.718;2023-08-30T08:49:57;13.50;99.90
18240;DHT22;9244;50.828;4.718;2023-08-30T08:52:26;13.50;99.90
18240;DHT22;9244;50.828;4.718;2023-08-30T08:54:52;13.60;99.90
18240;DHT22;9244;50.828;4.718;2023-08-30T08:57:19;13.80;99.90
18240;DHT22;9244;50.828;4.718;2023-08-30T08:59:44;13.90;99.90
18240;DHT22;9244;50.828;4.718;2023-08-30T09:02:13;14.00;99.90
18240;DHT22;9244;50.828;4.718;2023-08-30T09:04:39;13.90;99.90
18240;DHT22;9244;50.828;4.718;2023-08-30T09:07:06;13.90;99.90
18240;DHT22;9244;50.828;4.718;2023-08-30T09:09:33;13.90;99.90
18240;DHT22;9244;50.828;4.718;2023-08-30T09:11:59;13.90;99.90
18240;DHT22;9244;50.828;4.718;2023-08-30T09:14:25;14.00;99.90
18240;DHT22;9244;50.828;4.718;2023-08-30T09:16:58;14.00;99.90
18240;DHT22;9244;50.828;4.718;2023-08-30T09:19:26;14.00;99.90
18240;DHT22;9244;50.828;4.718;2023-08-30T09:21:58;14.10;99.90
18240;DHT22;9244;50.828;4.718;2023-08-30T09:24:24;14.20;99.90
18240;DHT22;9244;50.828;4.718;2023-08-30T09:26:54;14.30;99.90
18240;DHT22;9244;50.828;4.718;2023-08-30T09:29:22;14.40;99.90
18240;DHT22;9244;50.828;4.718;2023-08-30T09:31:51;14.40;99.90
18240;DHT22;9244;50.828;4.718;2023-08-30T09:34:26;14.50;99.90
18240;DHT22;9244;50.828;4.718;2023-08-30T09:36:53;14.40;99.90
18240;DHT22;9244;50.828;4.718;2023-08-30T09:39:19;14.50;99.90
18240;DHT22;9244;50.828;4.718;2023-08-30T09:41:49;14.60;99.90
18240;DHT22;9244;50.828;4.718;2023-08-30T09:44:20;14.70;99.90
18240;DHT22;9244;50.828;4.718;2023-08-30T09:46:49;14.80;99.90
18240;DHT22;9244;50.828;4.718;2023-08-30T09:49:19;14.80;99.90
18240;DHT22;9244;50.828;4.718;2023-08-30T09:51:47;14.80;99.90
18240;DHT22;9244;50.828;4.718;2023-08-30T09:54:15;14.80;99.90
18240;DHT22;9244;50.828;4.718;2023-08-30T09:56:42;14.80;99.90
18240;DHT22;9244;50.828;4.718;2023-08-30T09:59:10;14.80;99.90
18240;DHT22;9244;50.828;4.718;2023-08-30T10:01:37;14.90;99.90
18240;DHT22;9244;50.828;4.718;2023-08-30T10:04:03;14.90;99.90
18240;DHT22;9244;50.828;4.718;2023-08-30T10:06:30;14.90;99.90
18240;DHT22;9244;50.828;4.718;2023-08-30T10:08:56;15.00;99.90
18240;DHT22;9244;50.828;4.718;2023-08-30T10:11:23;15.10;99.90
18240;DHT22;9244;50.828;4.718;2023-08-30T10:13:51;15.10;99.90
18240;DHT22;9244;50.828;4.718;2023-08-30T10:16:23;15.10;99.90
18240;DHT22;9244;50.828;4.718;2023-08-30T10:19:05;15.10;99.90
18240;DHT22;9244;50.828;4.718;2023-08-30T10:21:35;15.30;99.90
18240;DHT22;9244;50.828;4.718;2023-08-30T10:24:02;15.30;99.90
18240;DHT22;9244;50.828;4.718;2023-08-30T10:26:29;15.20;99.90
18240;DHT22;9244;50.828;4.718;2023-08-30T10:28:57;15.10;99.90
18240;DHT22;9244;50.828;4.718;2023-08-30T10:31:23;15.10;99.90
18240;DHT22;9244;50.828;4.718;2023-08-30T10:33:58;15.10;99.90
18240;DHT22;9244;50.828;4.718;2023-08-30T10:36:24;15.10;99.90
18240;DHT22;9244;50.828;4.718;2023-08-30T10:38:51;15.30;99.90
18240;DHT22;9244;50.828;4.718;2023-08-30T10:41:22;15.30;99.90
18240;DHT22;9244;50.828;4.718;2023-08-30T10:43:52;15.10;99.90
18240;DHT22;9244;50.828;4.718;2023-08-30T10:46:29;15.00;99.90
18240;DHT22;9244;50.828;4.718;2023-08-30T10:48:55;15.10;99.90
18240;DHT22;9244;50.828;4.718;2023-08-30T10:51:35;15.10;99.90
18240;DHT22;9244;50.828;4.718;2023-08-30T10:54:14;15.20;99.90
18240;DHT22;9244;50.828;4.718;2023-08-30T10:59:20;15.10;99.90
18240;DHT22;9244;50.828;4.718;2023-08-30T11:01:47;15.30;99.90
18240;DHT22;9244;50.828;4.718;2023-08-30T11:04:17;15.30;99.90
18240;DHT22;9244;50.828;4.718;2023-08-30T11:06:44;15.40;99.90
18240;DHT22;9244;50.828;4.718;2023-08-30T11:09:13;15.50;99.90
18240;DHT22;9244;50.828;4.718;2023-08-30T11:11:39;15.40;99.90
18240;DHT22;9244;50.828;4.718;2023-08-30T11:14:09;15.30;99.90
18240;DHT22;9244;50.828;4.718;2023-08-30T11:16:36;15.60;99.90
18240;DHT22;9244;50.828;4.718;2023-08-30T11:19:05;15.50;99.90
18240;DHT22;9244;50.828;4.718;2023-08-30T11:21:32;15.70;99.90
18240;DHT22;9244;50.828;4.718;2023-08-30T11:23:58;15.80;99.90
18240;DHT22;9244;50.828;4.718;2023-08-30T11:26:24;15.90;99.90
18240;DHT22;9244;50.828;4.718;2023-08-30T11:28:50;16.00;99.90
18240;DHT22;9244;50.828;4.718;2023-08-30T11:31:22;16.10;99.90
18240;DHT22;9244;50.828;4.718;2023-08-30T11:33:52;16.10;99.90
18240;DHT22;9244;50.828;4.718;2023-08-30T11:36:20;16.10;99.90
18240;DHT22;9244;50.828;4.718;2023-08-30T11:38:47;16.10;99.90
18240;DHT22;9244;50.828;4.718;2023-08-30T11:41:12;16.10;99.90
18240;DHT22;9244;50.828;4.718;2023-08-30T11:43:39;16.30;99.90
18240;DHT22;9244;50.828;4.718;2023-08-30T11:46:05;16.20;99.90
18240;DHT22;9244;50.828;4.718;2023-08-30T11:48:31;16.20;99.90
18240;DHT22;9244;50.828;4.718;2023-08-30T11:50:58;16.10;99.90
18240;DHT22;9244;50.828;4.718;2023-08-30T11:53:24;16.30;99.90
18240;DHT22;9244;50.828;4.718;2023-08-30T11:55:51;16.50;99.90
18240;DHT22;9244;50.828;4.718;2023-08-30T11:58:18;16.60;99.90
18240;DHT22;9244;50.828;4.718;2023-08-30T12:00:44;16.90;99.90
18240;DHT22;9244;50.828;4.718;2023-08-30T12:03:13;17.20;99.90
18240;DHT22;9244;50.828;4.718;2023-08-30T12:05:50;17.60;99.90
18240;DHT22;9244;50.828;4.718;2023-08-30T12:08:31;17.80;99.90
18240;DHT22;9244;50.828;4.718;2023-08-30T12:10:57;18.10;99.90
18240;DHT22;9244;50.828;4.718;2023-08-30T12:13:31;17.90;99.90
18240;DHT22;9244;50.828;4.718;2023-08-30T12:15:59;17.40;99.90
18240;DHT22;9244;50.828;4.718;2023-08-30T12:18:29;17.20;99.90
18240;DHT22;9244;50.828;4.718;2023-08-30T12:21:01;17.10;99.90
18240;DHT22;9244;50.828;4.718;2023-08-30T12:23:29;17.30;99.90
18240;DHT22;9244;50.828;4.718;2023-08-30T12:28:31;17.40;99.90
18240;DHT22;9244;50.828;4.718;2023-08-30T12:30:57;17.60;99.90
18240;DHT22;9244;50.828;4.718;2023-08-30T12:33:23;17.90;99.90
18240;DHT22;9244;50.828;4.718;2023-08-30T12:35:51;18.10;99.90
18240;DHT22;9244;50.828;4.718;2023-08-30T12:38:17;18.30;99.90
18240;DHT22;9244;50.828;4.718;2023-08-30T12:40:55;18.60;99.90
18240;DHT22;9244;50.828;4.718;2023-08-30T12:43:22;18.50;99.90
18240;DHT22;9244;50.828;4.718;2023-08-30T12:45:49;18.40;99.90
18240;DHT22;9244;50.828;4.718;2023-08-30T12:48:18;18.20;99.90
18240;DHT22;9244;50.828;4.718;2023-08-30T12:50:47;18.00;99.90
18240;DHT22;9244;50.828;4.718;2023-08-30T12:53:14;17.80;99.90
18240;DHT22;9244;50.828;4.718;2023-08-30T12:55:42;17.90;99.90
18240;DHT22;9244;50.828;4.718;2023-08-30T12:58:08;18.10;99.90
18240;DHT22;9244;50.828;4.718;2023-08-30T13:00:34;18.10;99.90
18240;DHT22;9244;50.828;4.718;2023-08-30T13:03:00;18.20;99.90
18240;DHT22;9244;50.828;4.718;2023-08-30T13:05:26;18.90;99.90
18240;DHT22;9244;50.828;4.718;2023-08-30T13:07:52;19.20;99.90
18240;DHT22;9244;50.828;4.718;2023-08-30T13:10:19;19.40;99.90
18240;DHT22;9244;50.828;4.718;2023-08-30T13:12:44;19.60;99.90
18240;DHT22;9244;50.828;4.718;2023-08-30T13:15:10;19.90;99.90
18240;DHT22;9244;50.828;4.718;2023-08-30T13:17:36;20.00;99.90
18240;DHT22;9244;50.828;4.718;2023-08-30T13:20:03;20.00;99.90
18240;DHT22;9244;50.828;4.718;2023-08-30T13:22:29;19.30;99.90
18240;DHT22;9244;50.828;4.718;2023-08-30T13:24:54;18.80;99.90
18240;DHT22;9244;50.828;4.718;2023-08-30T13:27:20;19.00;99.90
18240;DHT22;9244;50.828;4.718;2023-08-30T13:29:46;18.70;99.90
18240;DHT22;9244;50.828;4.718;2023-08-30T13:32:12;19.30;99.90
18240;DHT22;9244;50.828;4.718;2023-08-30T13:34:38;19.90;99.90
18240;DHT22;9244;50.828;4.718;2023-08-30T13:37:11;19.70;99.90
18240;DHT22;9244;50.828;4.718;2023-08-30T13:39:37;20.10;99.90
18240;DHT22;9244;50.828;4.718;2023-08-30T13:42:03;20.00;99.90
18240;DHT22;9244;50.828;4.718;2023-08-30T13:44:29;20.20;99.90
18240;DHT22;9244;50.828;4.718;2023-08-30T13:46:54;20.70;99.90
18240;DHT22;9244;50.828;4.718;2023-08-30T13:49:20;20.90;99.90
18240;DHT22;9244;50.828;4.718;2023-08-30T13:51:46;20.70;99.90
18240;DHT22;9244;50.828;4.718;2023-08-30T13:54:11;20.90;99.90
18240;DHT22;9244;50.828;4.718;2023-08-30T13:56:37;21.20;99.90
18240;DHT22;9244;50.828;4.718;2023-08-30T13:59:06;21.10;99.90
18240;DHT22;9244;50.828;4.718;2023-08-30T14:01:32;21.30;99.90
18240;DHT22;9244;50.828;4.718;2023-08-30T14:03:58;21.10;99.90
18240;DHT22;9244;50.828;4.718;2023-08-30T14:06:23;20.40;99.90
18240;DHT22;9244;50.828;4.718;2023-08-30T14:08:49;20.40;99.90
18240;DHT22;9244;50.828;4.718;2023-08-30T14:11:14;20.60;99.90
18240;DHT22;9244;50.828;4.718;2023-08-30T14:13:40;20.10;99.90
18240;DHT22;9244;50.828;4.718;2023-08-30T14:16:06;19.70;99.90
18240;DHT22;9244;50.828;4.718;2023-08-30T14:18:32;19.20;99.90
18240;DHT22;9244;50.828;4.718;2023-08-30T14:20:59;18.90;99.90
18240;DHT22;9244;50.828;4.718;2023-08-30T14:23:26;18.70;99.90
18240;DHT22;9244;50.828;4.718;2023-08-30T14:26:05;18.50;99.90
18240;DHT22;9244;50.828;4.718;2023-08-30T14:28:39;18.50;99.90
18240;DHT22;9244;50.828;4.718;2023-08-30T14:31:09;18.50;99.90
18240;DHT22;9244;50.828;4.718;2023-08-30T14:33:35;18.30;99.90
18240;DHT22;9244;50.828;4.718;2023-08-30T14:36:01;18.30;99.90
18240;DHT22;9244;50.828;4.718;2023-08-30T14:38:28;18.30;99.90
18240;DHT22;9244;50.828;4.718;2023-08-30T14:40:57;18.20;99.90
18240;DHT22;9244;50.828;4.718;2023-08-30T14:43:23;18.20;99.90
18240;DHT22;9244;50.828;4.718;2023-08-30T14:45:48;18.10;99.90
18240;DHT22;9244;50.828;4.718;2023-08-30T14:48:14;18.50;99.90
18240;DHT22;9244;50.828;4.718;2023-08-30T14:50:40;19.50;99.90
18240;DHT22;9244;50.828;4.718;2023-08-30T14:53:05;20.10;99.90
18240;DHT22;9244;50.828;4.718;2023-08-30T14:55:32;19.30;99.90
18240;DHT22;9244;50.828;4.718;2023-08-30T14:57:58;18.50;99.90
18240;DHT22;9244;50.828;4.718;2023-08-30T15:00:24;18.40;99.90
18240;DHT22;9244;50.828;4.718;2023-08-30T15:02:49;18.30;99.90
18240;DHT22;9244;50.828;4.718;2023-08-30T15:05:15;18.30;99.90
18240;DHT22;9244;50.828;4.718;2023-08-30T15:07:41;18.30;99.90
18240;DHT22;9244;50.828;4.718;2023-08-30T15:10:07;18.40;99.90
18240;DHT22;9244;50.828;4.718;2023-08-30T15:12:32;18.80;99.90
18240;DHT22;9244;50.828;4.718;2023-08-30T15:14:58;19.10;99.90
18240;DHT22;9244;50.828;4.718;2023-08-30T15:17:23;18.90;99.90
18240;DHT22;9244;50.828;4.718;2023-08-30T15:19:49;19.00;99.90
18240;DHT22;9244;50.828;4.718;2023-08-30T15:22:15;18.80;99.90
18240;DHT22;9244;50.828;4.718;2023-08-30T15:24:40;18.60;99.90
18240;DHT22;9244;50.828;4.718;2023-08-30T15:27:06;18.80;99.90
18240;DHT22;9244;50.828;4.718;2023-08-30T15:29:31;18.90;99.90
18240;DHT22;9244;50.828;4.718;2023-08-30T15:31:57;19.20;99.90
18240;DHT22;9244;50.828;4.718;2023-08-30T15:34:23;18.60;99.90
18240;DHT22;9244;50.828;4.718;2023-08-30T15:36:48;18.80;99.90
18240;DHT22;9244;50.828;4.718;2023-08-30T15:39:14;19.00;99.90
18240;DHT22;9244;50.828;4.718;2023-08-30T15:41:42;19.00;99.90
18240;DHT22;9244;50.828;4.718;2023-08-30T15:44:08;18.80;99.90
18240;DHT22;9244;50.828;4.718;2023-08-30T15:46:33;18.50;99.90
18240;DHT22;9244;50.828;4.718;2023-08-30T15:48:59;18.40;99.90
18240;DHT22;9244;50.828;4.718;2023-08-30T15:51:25;18.20;99.90